Time;durP1;ratioP1;P1;durP2;ratioP2;P2;SDS_P1;SDS_P2;PMS_P1;PMS_P2;Temp;Humidity;BMP_temperature;BMP_pressure;BME280_temperature;BME280_humidity;BME280_pressure;Samples;Min_cycle;Max_cycle;Signal;HPM_P1;HPM_P2
2023/08/03 00:00:45;;;;;;;0.00;0.00;;;;;;;17.20;100.00;98254.09;5011986;28;20184;-85
2023/08/03 00:03:10;;;;;;;0.00;0.00;;;;;;;17.27;100.00;98258.78;5028513;28;20187;-85
2023/08/03 00:05:36;;;;;;;0.60;0.60;;;;;;;17.20;100.00;98249.34;5015739;28;20713;-86
2023/08/03 00:08:01;;;;;;;0.00;0.00;;;;;;;17.15;100.00;98238.75;5015831;28;20183;-85
2023/08/03 00:10:26;;;;;;;1.03;0.73;;;;;;;17.23;100.00;98243.03;5025070;28;20177;-86
2023/08/03 00:12:51;;;;;;;0.00;0.00;;;;;;;17.28;100.00;98246.53;5033620;28;20234;-86
2023/08/03 00:15:18;;;;;;;0.13;0.13;;;;;;;17.15;100.00;98236.00;5015771;28;20628;-85
2023/08/03 00:17:44;;;;;;;2.33;0.93;;;;;;;17.24;100.00;98238.28;5033557;28;20180;-85
2023/08/03 00:20:10;;;;;;;0.00;0.00;;;;;;;17.33;100.00;98235.03;5015551;28;20184;-85
2023/08/03 00:22:36;;;;;;;0.60;0.53;;;;;;;17.27;100.00;98236.69;5015128;28;20184;-85
2023/08/03 00:25:03;;;;;;;0.00;0.00;;;;;;;17.17;100.00;98224.56;5015090;28;20203;-86
2023/08/03 00:27:28;;;;;;;0.00;0.00;;;;;;;17.20;100.00;98227.28;5033204;28;20187;-86
2023/08/03 00:29:54;;;;;;;0.00;0.00;;;;;;;17.21;100.00;98233.56;5016292;28;20187;-86
2023/08/03 00:32:20;;;;;;;0.00;0.00;;;;;;;17.27;100.00;98236.69;5035327;28;20222;-86
2023/08/03 00:34:45;;;;;;;0.00;0.00;;;;;;;17.32;100.00;98220.44;5036266;28;20211;-85
2023/08/03 00:37:11;;;;;;;1.73;0.97;;;;;;;17.28;100.00;98221.69;5039253;28;20198;-86
2023/08/03 00:39:36;;;;;;;0.00;0.00;;;;;;;17.30;100.00;98219.31;5021570;28;20546;-85
2023/08/03 00:42:03;;;;;;;0.00;0.00;;;;;;;17.23;100.00;98206.38;5039210;28;20191;-86
2023/08/03 00:44:29;;;;;;;0.00;0.00;;;;;;;17.40;100.00;98221.16;5019993;28;20242;-86
2023/08/03 00:46:54;;;;;;;0.10;0.10;;;;;;;17.18;100.00;98212.31;5038401;28;20203;-86
2023/08/03 00:49:19;;;;;;;0.80;0.80;;;;;;;17.19;100.00;98219.41;5020894;28;20658;-85
2023/08/03 00:51:45;;;;;;;0.00;0.00;;;;;;;17.26;100.00;98222.09;5020009;28;20199;-86
2023/08/03 00:54:10;;;;;;;0.00;0.00;;;;;;;17.09;100.00;98201.78;5020107;28;20199;-86
2023/08/03 00:56:36;;;;;;;0.00;0.00;;;;;;;17.10;100.00;98188.78;5037559;28;20199;-86
2023/08/03 00:59:06;;;;;;;0.00;0.00;;;;;;;17.05;100.00;98189.19;5036961;28;20183;-86
2023/08/03 01:01:32;;;;;;;0.70;0.70;;;;;;;17.02;100.00;98182.53;5037411;28;20199;-86
2023/08/03 01:03:57;;;;;;;0.00;0.00;;;;;;;17.08;100.00;98191.16;5019851;28;20701;-86
2023/08/03 01:06:23;;;;;;;0.00;0.00;;;;;;;17.04;100.00;98190.41;5019247;28;20860;-86
2023/08/03 01:08:48;;;;;;;0.00;0.00;;;;;;;17.06;100.00;98196.28;5019104;28;20191;-85
2023/08/03 01:11:13;;;;;;;0.00;0.00;;;;;;;16.98;100.00;98187.31;5017739;28;20187;-85
2023/08/03 01:13:39;;;;;;;0.00;0.00;;;;;;;17.03;100.00;98188.84;5035108;28;20739;-86
2023/08/03 01:16:07;;;;;;;0.00;0.00;;;;;;;16.93;100.00;98171.22;5035305;28;20192;-86
2023/08/03 01:18:32;;;;;;;0.10;0.10;;;;;;;16.90;100.00;98177.53;5026810;28;20192;-85
2023/08/03 01:20:58;;;;;;;0.10;0.10;;;;;;;16.85;100.00;98178.75;5017272;28;20237;-84
2023/08/03 01:23:23;;;;;;;6.23;0.97;;;;;;;16.98;100.00;98181.78;5034760;28;20199;-85
2023/08/03 01:25:49;;;;;;;0.00;0.00;;;;;;;16.98;100.00;98178.25;5034675;28;20187;-86
2023/08/03 01:28:14;;;;;;;0.00;0.00;;;;;;;16.86;100.00;98169.28;5017388;28;20184;-85
2023/08/03 01:30:39;;;;;;;0.00;0.00;;;;;;;16.92;100.00;98175.13;5034875;28;20180;-86
2023/08/03 01:33:05;;;;;;;0.00;0.00;;;;;;;16.92;100.00;98175.94;5034360;28;20271;-83
2023/08/03 01:35:30;;;;;;;0.00;0.00;;;;;;;16.97;100.00;98169.19;5034934;28;20180;-85
2023/08/03 01:37:55;;;;;;;0.00;0.00;;;;;;;16.80;100.00;98159.91;5026564;28;20187;-87
2023/08/03 01:40:21;;;;;;;0.67;0.23;;;;;;;16.91;100.00;98170.81;5034247;28;20183;-85
2023/08/03 01:42:46;;;;;;;0.00;0.00;;;;;;;16.98;100.00;98164.47;5026472;28;20258;-85
2023/08/03 01:45:11;;;;;;;7.00;0.43;;;;;;;16.98;100.00;98153.41;5034568;28;20230;-84
2023/08/03 01:47:37;;;;;;;0.00;0.00;;;;;;;17.06;100.00;98146.63;5015464;28;20230;-85
2023/08/03 01:50:02;;;;;;;4.43;0.97;;;;;;;16.90;100.00;98153.47;5034669;28;20184;-85
2023/08/03 01:52:27;;;;;;;0.00;0.00;;;;;;;16.94;100.00;98142.44;5016757;28;20200;-84
2023/08/03 01:54:53;;;;;;;1.07;0.03;;;;;;;16.88;100.00;98142.09;5035034;28;20253;-85
2023/08/03 01:57:18;;;;;;;1.13;0.67;;;;;;;16.81;100.00;98139.41;5026364;28;20184;-85
2023/08/03 01:59:44;;;;;;;3.57;0.50;;;;;;;16.88;100.00;98135.78;5016683;28;20696;-85
2023/08/03 02:02:10;;;;;;;0.83;0.83;;;;;;;16.97;99.00;98141.59;5033997;28;20669;-85
2023/08/03 02:04:35;;;;;;;0.00;0.00;;;;;;;17.08;98.80;98139.53;5016622;28;20203;-85
2023/08/03 02:07:17;;;;;;;1.50;0.77;;;;;;;17.06;98.63;98135.59;5034303;28;20302;-85
2023/08/03 02:09:42;;;;;;;0.00;0.00;;;;;;;17.11;97.45;98130.41;5008401;28;20180;-86
2023/08/03 02:12:08;;;;;;;0.00;0.00;;;;;;;17.21;97.07;98129.53;5033919;28;20686;-85
2023/08/03 02:14:34;;;;;;;0.00;0.00;;;;;;;17.21;96.85;98118.47;5008152;28;20812;-85
2023/08/03 02:16:59;;;;;;;0.10;0.10;;;;;;;17.04;97.32;98113.16;5034187;28;20180;-85
2023/08/03 02:19:25;;;;;;;1.97;0.33;;;;;;;17.05;97.56;98121.00;5016358;28;20559;-85
2023/08/03 02:21:50;;;;;;;0.10;0.10;;;;;;;17.08;97.84;98125.72;5033833;28;20175;-86
2023/08/03 02:24:15;;;;;;;0.10;0.10;;;;;;;17.13;97.66;98121.72;5034058;28;20218;-85
2023/08/03 02:26:40;;;;;;;5.70;0.60;;;;;;;17.01;97.50;98109.25;5030745;28;20254;-85
2023/08/03 02:29:06;;;;;;;0.00;0.00;;;;;;;16.94;97.99;98109.34;5011081;28;20196;-84
2023/08/03 02:31:31;;;;;;;0.20;0.20;;;;;;;16.95;98.89;98117.19;5015675;28;20196;-85
2023/08/03 02:33:56;;;;;;;1.70;0.80;;;;;;;16.86;99.23;98111.38;5015842;28;20690;-86
2023/08/03 02:36:22;;;;;;;0.97;0.87;;;;;;;17.00;99.09;98115.94;5033734;28;20187;-85
2023/08/03 02:38:47;;;;;;;0.60;0.60;;;;;;;16.97;99.36;98105.75;5015887;28;20225;-85
2023/08/03 02:41:12;;;;;;;2.00;0.70;;;;;;;17.01;98.42;98102.94;5015805;28;20191;-85
2023/08/03 02:43:37;;;;;;;0.10;0.10;;;;;;;16.99;98.13;98106.13;5015324;28;20200;-85
2023/08/03 02:46:03;;;;;;;0.57;0.43;;;;;;;17.04;98.02;98105.66;5007604;28;20712;-84
2023/08/03 02:48:28;;;;;;;0.10;0.00;;;;;;;17.01;98.22;98106.47;5033248;28;20230;-85
2023/08/03 02:50:53;;;;;;;1.20;0.80;;;;;;;16.92;98.69;98100.66;5004693;28;20662;-85
2023/08/03 02:53:18;;;;;;;2.57;0.10;;;;;;;16.97;97.76;98094.72;5012211;28;20203;-84
2023/08/03 02:55:44;;;;;;;2.70;1.40;;;;;;;17.01;97.77;98100.97;4997070;28;20599;-85
2023/08/03 02:58:09;;;;;;;0.30;0.30;;;;;;;17.00;97.80;98102.16;5024219;28;20179;-84
2023/08/03 03:00:34;;;;;;;0.67;0.57;;;;;;;16.93;98.81;98096.75;5012135;28;20184;-85
2023/08/03 03:02:59;;;;;;;0.40;0.40;;;;;;;16.88;99.55;98097.16;5015384;28;20179;-85
2023/08/03 03:05:24;;;;;;;0.10;0.10;;;;;;;16.87;100.00;98099.16;5007614;28;20282;-85
2023/08/03 03:07:50;;;;;;;2.23;1.00;;;;;;;16.77;100.00;98096.50;5015177;28;20650;-85
2023/08/03 03:10:15;;;;;;;0.00;0.00;;;;;;;16.79;100.00;98105.94;5015578;28;20189;-85
2023/08/03 03:12:41;;;;;;;0.63;0.20;;;;;;;16.75;100.00;98107.16;5006904;28;20199;-85
2023/08/03 03:15:07;;;;;;;0.00;0.00;;;;;;;16.66;100.00;98110.38;5014973;28;20212;-85
2023/08/03 03:17:32;;;;;;;0.10;0.03;;;;;;;16.62;100.00;98115.13;5015263;28;20211;-85
2023/08/03 03:19:57;;;;;;;0.00;0.00;;;;;;;16.43;100.00;98108.22;5007175;28;20176;-85
2023/08/03 03:22:23;;;;;;;8.30;0.57;;;;;;;16.31;100.00;98097.69;5031726;28;20176;-85
2023/08/03 03:24:48;;;;;;;0.20;0.20;;;;;;;16.30;100.00;98110.69;5004261;28;20192;-86
2023/08/03 03:27:13;;;;;;;0.30;0.20;;;;;;;16.18;100.00;98119.44;5015073;28;20176;-86
2023/08/03 03:29:39;;;;;;;0.10;0.10;;;;;;;16.40;100.00;98113.78;5032581;28;20582;-86
2023/08/03 03:32:04;;;;;;;0.10;0.10;;;;;;;16.34;100.00;98110.66;5014952;28;20203;-86
2023/08/03 03:34:29;;;;;;;2.00;0.33;;;;;;;16.32;100.00;98118.56;5032494;28;20680;-85
2023/08/03 03:36:55;;;;;;;0.73;0.37;;;;;;;16.25;100.00;98124.91;5032584;28;20254;-85
2023/08/03 03:39:20;;;;;;;0.10;0.10;;;;;;;16.29;100.00;98135.91;5014595;28;20184;-84
2023/08/03 03:41:45;;;;;;;0.00;0.00;;;;;;;16.28;100.00;98126.84;5024383;28;20594;-85
2023/08/03 03:44:10;;;;;;;0.20;0.20;;;;;;;16.32;100.00;98135.09;5006711;28;20199;-86
2023/08/03 03:46:36;;;;;;;1.20;0.13;;;;;;;16.23;100.00;98119.03;5006688;28;20192;-84
2023/08/03 03:49:01;;;;;;;2.87;0.83;;;;;;;16.40;100.00;98139.34;5014600;28;20187;-85
2023/08/03 03:51:26;;;;;;;1.80;0.27;;;;;;;16.44;100.00;98120.81;5014690;28;20186;-85
2023/08/03 03:53:51;;;;;;;1.23;0.10;;;;;;;16.33;100.00;98133.91;5014569;28;20318;-86
2023/08/03 03:56:17;;;;;;;0.30;0.30;;;;;;;16.45;100.00;98143.66;5014710;28;20192;-85
2023/08/03 03:58:42;;;;;;;0.57;0.50;;;;;;;16.48;100.00;98146.38;5023931;28;20201;-84
2023/08/03 04:01:07;;;;;;;0.73;0.43;;;;;;;16.46;100.00;98140.47;5014561;28;20184;-86
2023/08/03 04:03:32;;;;;;;0.33;0.30;;;;;;;16.49;100.00;98149.91;5023752;28;20569;-86
2023/08/03 04:05:58;;;;;;;1.47;0.60;;;;;;;16.40;100.00;98133.06;5032353;28;20627;-86
2023/08/03 04:08:23;;;;;;;1.93;0.40;;;;;;;16.42;100.00;98131.47;5014189;28;20180;-86
2023/08/03 04:10:48;;;;;;;0.40;0.40;;;;;;;16.58;100.00;98153.75;4998375;28;20199;-86
2023/08/03 04:13:14;;;;;;;3.30;0.87;;;;;;;16.61;100.00;98141.13;5014061;28;20230;-86
2023/08/03 04:15:39;;;;;;;0.00;0.00;;;;;;;16.72;100.00;98155.63;5032095;28;20221;-85
2023/08/03 04:18:04;;;;;;;0.63;0.10;;;;;;;16.68;100.00;98159.63;5006368;28;20187;-86
2023/08/03 04:20:29;;;;;;;0.10;0.10;;;;;;;16.73;100.00;98159.19;5023742;28;20188;-86
2023/08/03 04:22:55;;;;;;;1.10;0.40;;;;;;;16.55;100.00;98162.06;5005902;28;20259;-86
2023/08/03 04:25:20;;;;;;;0.20;0.20;;;;;;;16.57;100.00;98181.75;5023744;28;20232;-85
2023/08/03 04:27:45;;;;;;;0.47;0.37;;;;;;;16.47;100.00;98186.13;5032041;28;20176;-86
2023/08/03 04:30:11;;;;;;;0.40;0.40;;;;;;;16.43;100.00;98188.16;5007079;28;20662;-86
2023/08/03 04:32:37;;;;;;;0.20;0.13;;;;;;;16.38;100.00;98199.63;5030879;28;20207;-85
2023/08/03 04:35:03;;;;;;;5.40;0.53;;;;;;;16.39;100.00;98212.22;5014307;28;20565;-85
2023/08/03 04:37:29;;;;;;;0.30;0.27;;;;;;;16.43;100.00;98210.19;5012680;28;20191;-85
2023/08/03 04:39:54;;;;;;;0.87;0.60;;;;;;;16.42;100.00;98216.13;5020292;28;20204;-86
2023/08/03 04:42:20;;;;;;;0.37;0.30;;;;;;;16.43;100.00;98221.22;5002665;28;20212;-85
2023/08/03 04:44:45;;;;;;;0.00;0.00;;;;;;;16.42;100.00;98218.88;5013937;28;20633;-85
2023/08/03 04:47:10;;;;;;;0.27;0.27;;;;;;;16.41;100.00;98231.88;5014087;28;20182;-85
2023/08/03 04:49:35;;;;;;;1.60;0.73;;;;;;;16.51;100.00;98220.00;5005993;28;20685;-84
2023/08/03 04:52:01;;;;;;;3.50;0.30;;;;;;;16.52;100.00;98212.50;5013896;28;20214;-86
2023/08/03 04:54:26;;;;;;;0.30;0.27;;;;;;;16.53;100.00;98217.63;5023377;28;20204;-86
2023/08/03 04:56:51;;;;;;;1.03;0.80;;;;;;;16.49;100.00;98233.41;5014049;28;20184;-85
2023/08/03 04:59:17;;;;;;;0.00;0.00;;;;;;;16.62;100.00;98233.69;5013739;28;20187;-84
2023/08/03 05:01:42;;;;;;;0.40;0.33;;;;;;;16.57;100.00;98226.63;5013721;28;20661;-84
2023/08/03 05:04:08;;;;;;;0.97;0.60;;;;;;;16.48;100.00;98218.03;5024963;28;20204;-86
2023/08/03 05:06:33;;;;;;;0.03;0.03;;;;;;;16.56;100.00;98219.56;5028379;28;20660;-85
2023/08/03 05:08:58;;;;;;;1.20;0.53;;;;;;;16.56;100.00;98238.06;5007788;28;20590;-86
2023/08/03 05:11:25;;;;;;;11.67;0.57;;;;;;;16.57;100.00;98223.88;5013759;28;20190;-85
2023/08/03 05:13:50;;;;;;;0.43;0.43;;;;;;;16.54;100.00;98224.69;5019471;28;20209;-86
2023/08/03 05:16:22;;;;;;;2.10;0.63;;;;;;;16.53;100.00;98234.16;5014695;28;20651;-85
2023/08/03 05:18:47;;;;;;;0.37;0.37;;;;;;;16.62;100.00;98236.44;5013472;28;20184;-86
2023/08/03 05:21:12;;;;;;;1.50;0.93;;;;;;;16.69;100.00;98232.88;5015364;28;20209;-86
2023/08/03 05:23:38;;;;;;;0.30;0.20;;;;;;;16.72;100.00;98234.81;5016992;28;20200;-87
2023/08/03 05:26:03;;;;;;;0.40;0.40;;;;;;;16.64;100.00;98242.34;5026720;28;20238;-86
2023/08/03 05:28:28;;;;;;;0.27;0.27;;;;;;;16.66;100.00;98248.25;5007697;28;20188;-86
2023/08/03 05:30:53;;;;;;;4.60;0.93;;;;;;;16.70;100.00;98251.78;5012545;28;20184;-85
2023/08/03 05:33:19;;;;;;;0.00;0.00;;;;;;;16.79;100.00;98256.84;5008538;28;20312;-88
2023/08/03 05:35:47;;;;;;;0.13;0.13;;;;;;;16.76;100.00;98252.13;5014729;28;20172;-85
2023/08/03 05:38:14;;;;;;;0.33;0.33;;;;;;;16.91;100.00;98261.84;5016597;28;20185;-86
2023/08/03 05:40:40;;;;;;;0.20;0.17;;;;;;;16.81;100.00;98240.66;5018665;28;20184;-85
2023/08/03 05:43:10;;;;;;;0.17;0.17;;;;;;;16.86;100.00;98252.03;5016539;28;20215;-84
2023/08/03 05:45:48;;;;;;;0.83;0.40;;;;;;;16.92;100.00;98255.94;5016968;28;20294;-85
2023/08/03 05:48:14;;;;;;;1.17;0.60;;;;;;;16.90;100.00;98235.44;5034663;28;20190;-86
2023/08/03 05:50:41;;;;;;;0.20;0.20;;;;;;;17.04;100.00;98257.38;5016890;28;20191;-85
2023/08/03 05:53:09;;;;;;;0.40;0.20;;;;;;;17.12;99.65;98250.63;5008369;28;20200;-84
2023/08/03 05:55:34;;;;;;;0.60;0.50;;;;;;;17.12;98.79;98256.16;5034414;28;20188;-86
2023/08/03 05:57:59;;;;;;;0.20;0.20;;;;;;;17.20;98.21;98252.09;5014911;28;20184;-86
2023/08/03 06:00:28;;;;;;;0.07;0.07;;;;;;;17.36;98.01;98261.81;5009384;28;20200;-86
2023/08/03 06:02:57;;;;;;;0.50;0.37;;;;;;;17.40;97.06;98262.56;5008472;28;20176;-86
2023/08/03 06:05:43;;;;;;;0.10;0.10;;;;;;;17.38;96.09;98257.47;5010562;28;20209;-86
2023/08/03 06:08:22;;;;;;;0.10;0.10;;;;;;;17.41;95.44;98256.66;5020184;28;20230;-85
2023/08/03 06:10:52;;;;;;;0.20;0.20;;;;;;;17.46;94.90;98256.19;5010978;28;20670;-85
2023/08/03 06:13:20;;;;;;;1.60;0.63;;;;;;;17.46;93.79;98249.88;5008138;28;20227;-85
2023/08/03 06:15:47;;;;;;;2.53;0.10;;;;;;;17.59;92.81;98250.91;5010368;28;20662;-85
2023/08/03 06:18:15;;;;;;;2.57;0.67;;;;;;;17.59;93.13;98256.44;5016648;28;20192;-84
2023/08/03 06:20:45;;;;;;;0.17;0.17;;;;;;;17.55;92.94;98264.78;5015793;28;20187;-86
2023/08/03 06:23:18;;;;;;;0.43;0.43;;;;;;;17.49;92.40;98265.63;5007857;28;20187;-86
2023/08/03 06:25:45;;;;;;;2.30;0.43;;;;;;;17.66;91.79;98263.88;5030663;28;20205;-86
2023/08/03 06:28:14;;;;;;;0.83;0.60;;;;;;;17.61;91.13;98267.84;5021310;28;20182;-86
2023/08/03 06:30:39;;;;;;;0.27;0.23;;;;;;;17.57;91.07;98266.34;5006870;28;20669;-86
2023/08/03 06:33:06;;;;;;;3.37;1.07;;;;;;;17.56;91.06;98279.34;5022135;28;20192;-86
2023/08/03 06:35:37;;;;;;;0.00;0.00;;;;;;;17.68;91.20;98264.25;5025627;28;20585;-86
2023/08/03 06:38:09;;;;;;;0.20;0.20;;;;;;;17.65;90.43;98274.16;5025655;28;20195;-86
2023/08/03 06:40:35;;;;;;;0.47;0.47;;;;;;;17.58;89.83;98274.22;5005996;28;20668;-84
2023/08/03 06:43:01;;;;;;;1.10;0.20;;;;;;;17.71;90.43;98280.81;5009712;28;20180;-86
2023/08/03 06:45:29;;;;;;;0.43;0.43;;;;;;;17.60;89.78;98273.78;5007991;28;20200;-86
2023/08/03 06:47:54;;;;;;;1.47;1.07;;;;;;;17.67;89.28;98274.50;5011539;28;20184;-86
2023/08/03 06:50:20;;;;;;;0.00;0.00;;;;;;;17.64;88.82;98283.59;5014421;28;20601;-86
2023/08/03 06:52:45;;;;;;;0.20;0.20;;;;;;;17.74;88.81;98288.25;5025451;28;20227;-84
2023/08/03 06:55:10;;;;;;;0.00;0.00;;;;;;;17.76;88.94;98287.84;5015910;28;20744;-85
2023/08/03 06:57:36;;;;;;;1.07;0.40;;;;;;;17.74;88.91;98309.56;5025446;28;20187;-85
2023/08/03 07:00:01;;;;;;;0.93;0.20;;;;;;;17.74;89.24;98299.31;5002077;28;20674;-87
2023/08/03 07:02:26;;;;;;;0.13;0.10;;;;;;;17.84;88.42;98303.16;5029826;28;20230;-84
2023/08/03 07:04:52;;;;;;;0.73;0.40;;;;;;;17.82;88.06;98306.31;5000453;28;20207;-86
2023/08/03 07:07:17;;;;;;;0.20;0.20;;;;;;;17.95;88.02;98325.91;5015559;28;20572;-86
2023/08/03 07:09:48;;;;;;;0.20;0.20;;;;;;;18.02;87.18;98325.03;5016954;28;20270;-86
2023/08/03 07:12:14;;;;;;;0.00;0.00;;;;;;;18.10;87.23;98330.06;4999853;28;20205;-86
2023/08/03 07:14:39;;;;;;;0.57;0.47;;;;;;;17.87;88.08;98320.88;5014502;28;20284;-86
2023/08/03 07:17:05;;;;;;;0.63;0.43;;;;;;;17.80;88.19;98339.09;5009685;28;20673;-87
2023/08/03 07:19:30;;;;;;;0.57;0.30;;;;;;;17.87;87.06;98326.41;5013391;28;20191;-86
2023/08/03 07:21:55;;;;;;;0.33;0.33;;;;;;;17.80;87.60;98336.34;5006895;28;20180;-86
2023/08/03 07:24:20;;;;;;;3.50;0.60;;;;;;;17.88;87.39;98337.03;5016716;28;20295;-86
2023/08/03 07:26:48;;;;;;;0.83;0.20;;;;;;;17.98;87.61;98335.34;5024390;28;20184;-85
2023/08/03 07:29:13;;;;;;;0.50;0.50;;;;;;;17.98;87.23;98335.34;5017179;28;20275;-86
2023/08/03 07:31:38;;;;;;;0.50;0.30;;;;;;;18.03;86.79;98326.59;5023549;28;20270;-85
2023/08/03 07:34:04;;;;;;;1.30;0.40;;;;;;;18.07;85.89;98327.34;5024632;28;20207;-87
2023/08/03 07:36:29;;;;;;;0.90;0.67;;;;;;;18.24;85.78;98340.19;5016621;28;20627;-86
2023/08/03 07:38:54;;;;;;;0.40;0.40;;;;;;;18.18;85.10;98336.28;4988695;28;20181;-86
2023/08/03 07:41:20;;;;;;;0.00;0.00;;;;;;;18.32;84.55;98338.09;5017929;28;20180;-85
2023/08/03 07:43:46;;;;;;;0.10;0.10;;;;;;;18.30;84.75;98343.25;5002959;28;20196;-86
2023/08/03 07:46:12;;;;;;;0.20;0.20;;;;;;;18.37;84.80;98352.25;5009671;28;20798;-86
2023/08/03 07:48:37;;;;;;;0.10;0.10;;;;;;;18.39;84.17;98349.84;5020924;28;20194;-86
2023/08/03 07:51:16;;;;;;;2.00;0.40;;;;;;;18.26;85.35;98357.13;5009099;28;20228;-86
2023/08/03 07:53:42;;;;;;;0.20;0.20;;;;;;;18.23;86.69;98369.00;5010422;28;20211;-85
2023/08/03 07:56:18;;;;;;;0.00;0.00;;;;;;;18.09;88.30;98366.41;5024638;28;20250;-86
2023/08/03 07:58:45;;;;;;;0.20;0.20;;;;;;;17.94;88.95;98360.28;5003252;28;20246;-85
2023/08/03 08:01:10;;;;;;;0.83;0.83;;;;;;;17.89;89.30;98360.69;5010186;28;20606;-86
2023/08/03 08:03:40;;;;;;;5.93;0.53;;;;;;;17.92;90.21;98375.66;5015982;28;20287;-86
2023/08/03 08:06:09;;;;;;;0.00;0.00;;;;;;;17.98;91.29;98382.31;5006717;28;20215;-86
2023/08/03 08:08:35;;;;;;;0.30;0.27;;;;;;;18.05;91.35;98373.94;4997695;28;20188;-87
2023/08/03 08:11:01;;;;;;;0.00;0.00;;;;;;;18.17;90.90;98386.44;4993496;28;20194;-86
2023/08/03 08:13:26;;;;;;;0.47;0.47;;;;;;;18.23;89.82;98380.06;5011734;28;20244;-85
2023/08/03 08:15:58;;;;;;;0.70;0.20;;;;;;;18.20;89.56;98386.41;5023962;28;20196;-87
2023/08/03 08:18:24;;;;;;;0.37;0.37;;;;;;;18.24;89.06;98386.38;5029531;28;20179;-87
2023/08/03 08:21:05;;;;;;;0.20;0.20;;;;;;;18.27;89.00;98380.03;4998389;28;20183;-87
2023/08/03 08:23:31;;;;;;;0.17;0.17;;;;;;;18.19;90.94;98379.31;5010615;28;20192;-86
2023/08/03 08:25:56;;;;;;;0.47;0.30;;;;;;;18.15;90.91;98384.09;4998372;28;20176;-86
2023/08/03 08:28:22;;;;;;;0.37;0.27;;;;;;;18.11;90.09;98381.38;5020718;28;20666;-86
2023/08/03 08:30:48;;;;;;;1.27;0.20;;;;;;;18.14;90.40;98382.53;5006217;28;20229;-87
2023/08/03 08:33:14;;;;;;;0.10;0.10;;;;;;;18.26;92.11;98401.34;5024372;28;20646;-86
2023/08/03 08:35:40;;;;;;;0.30;0.20;;;;;;;18.38;90.85;98398.06;5028657;28;20184;-86
2023/08/03 08:38:05;;;;;;;0.27;0.20;;;;;;;18.44;90.99;98392.84;5012292;28;20246;-87
2023/08/03 08:40:35;;;;;;;0.00;0.00;;;;;;;18.62;90.39;98398.13;5013650;28;20658;-87
2023/08/03 08:43:00;;;;;;;0.60;0.60;;;;;;;18.55;89.30;98392.72;5008454;28;20176;-87
2023/08/03 08:45:25;;;;;;;0.10;0.10;;;;;;;18.74;89.82;98403.16;5003421;28;20204;-86
2023/08/03 08:47:50;;;;;;;0.10;0.10;;;;;;;18.87;87.84;98408.91;5005913;28;20184;-87
2023/08/03 08:50:16;;;;;;;0.90;0.63;;;;;;;19.03;86.77;98393.22;5013851;28;20171;-86
2023/08/03 08:52:43;;;;;;;0.10;0.10;;;;;;;19.28;85.72;98411.47;4999055;28;20281;-86
2023/08/03 08:55:16;;;;;;;0.33;0.30;;;;;;;19.26;84.92;98395.25;5007688;28;20678;-87
2023/08/03 08:57:41;;;;;;;0.20;0.20;;;;;;;19.09;85.25;98412.91;5009472;28;20275;-86
2023/08/03 09:00:08;;;;;;;0.27;0.27;;;;;;;18.91;86.81;98421.47;5010065;28;20322;-86
2023/08/03 09:02:34;;;;;;;0.20;0.20;;;;;;;18.60;89.17;98437.28;5009825;28;20206;-86
2023/08/03 09:05:17;;;;;;;1.70;0.57;;;;;;;18.27;91.54;98440.84;5018226;28;20773;-85
2023/08/03 09:07:43;;;;;;;0.40;0.40;;;;;;;17.95;95.41;98441.97;5006891;28;20749;-87
2023/08/03 09:10:09;;;;;;;0.60;0.40;;;;;;;17.77;98.33;98447.63;5023447;28;20259;-86
2023/08/03 09:12:34;;;;;;;1.03;0.73;;;;;;;17.63;100.00;98475.34;5017599;28;20197;-86
2023/08/03 09:15:00;;;;;;;0.17;0.17;;;;;;;17.55;100.00;98479.38;5018422;28;20215;-87
2023/08/03 09:17:26;;;;;;;0.20;0.10;;;;;;;17.63;100.00;98502.97;5003311;28;20184;-86
2023/08/03 09:19:52;;;;;;;0.10;0.10;;;;;;;17.65;100.00;98499.78;5006498;28;20797;-85
2023/08/03 09:22:19;;;;;;;0.97;0.60;;;;;;;17.41;100.00;98507.88;5017213;28;20173;-85
2023/08/03 09:24:47;;;;;;;0.53;0.53;;;;;;;17.14;100.00;98509.59;5023551;28;20203;-85
2023/08/03 09:27:16;;;;;;;0.37;0.37;;;;;;;16.95;100.00;98514.44;5026003;28;20183;-85
2023/08/03 09:29:42;;;;;;;0.30;0.30;;;;;;;16.91;100.00;98521.13;5031599;28;20594;-86
2023/08/03 09:32:08;;;;;;;1.83;0.73;;;;;;;16.74;100.00;98508.22;5017200;28;20214;-86
2023/08/03 09:34:42;;;;;;;0.50;0.20;;;;;;;16.78;100.00;98512.53;5032867;28;20262;-87
2023/08/03 09:37:08;;;;;;;1.03;0.53;;;;;;;16.70;100.00;98535.03;5011510;28;20183;-86
2023/08/03 09:39:34;;;;;;;2.00;0.30;;;;;;;16.66;100.00;98527.53;5017774;28;20610;-87
2023/08/03 09:42:05;;;;;;;0.20;0.20;;;;;;;16.76;100.00;98547.19;5016770;28;20175;-86
2023/08/03 09:44:33;;;;;;;1.47;0.63;;;;;;;16.72;100.00;98535.41;5016661;28;20257;-86
2023/08/03 09:47:01;;;;;;;2.73;0.40;;;;;;;16.89;100.00;98531.78;5010565;28;20654;-86
2023/08/03 09:49:26;;;;;;;0.00;0.00;;;;;;;17.07;100.00;98554.59;5025424;28;20186;-85
2023/08/03 09:51:54;;;;;;;0.80;0.80;;;;;;;17.00;100.00;98551.06;5019551;28;20189;-85
2023/08/03 09:54:32;;;;;;;0.40;0.40;;;;;;;17.24;100.00;98558.44;5023231;28;20226;-87
2023/08/03 09:57:00;;;;;;;0.43;0.20;;;;;;;17.34;100.00;98563.09;5006983;28;20250;-87
2023/08/03 09:59:30;;;;;;;0.10;0.03;;;;;;;17.22;100.00;98564.38;5017306;28;20288;-87
2023/08/03 10:01:58;;;;;;;0.10;0.10;;;;;;;17.10;100.00;98556.53;5015150;28;20184;-86
2023/08/03 10:04:26;;;;;;;0.33;0.20;;;;;;;17.09;100.00;98571.53;5009905;28;20255;-87
2023/08/03 10:06:59;;;;;;;0.10;0.10;;;;;;;16.93;100.00;98560.94;5034570;28;20187;-85
2023/08/03 10:09:32;;;;;;;0.00;0.00;;;;;;;17.05;100.00;98592.81;5015926;28;20183;-85
2023/08/03 10:12:01;;;;;;;0.00;0.00;;;;;;;17.11;100.00;98599.50;5033720;28;20206;-85
2023/08/03 10:14:31;;;;;;;0.00;0.00;;;;;;;16.87;100.00;98594.84;5033921;28;20215;-86
2023/08/03 10:17:00;;;;;;;0.10;0.10;;;;;;;16.93;100.00;98590.50;5034013;28;20184;-85
2023/08/03 10:19:28;;;;;;;0.10;0.00;;;;;;;16.84;100.00;98601.94;5025681;28;20600;-85
2023/08/03 10:21:53;;;;;;;0.00;0.00;;;;;;;16.83;100.00;98607.88;5033711;28;20210;-85
2023/08/03 10:24:19;;;;;;;0.00;0.00;;;;;;;16.86;100.00;98609.81;5015989;28;20211;-86
2023/08/03 10:26:51;;;;;;;0.00;0.00;;;;;;;16.81;100.00;98621.28;5012519;28;20187;-85
2023/08/03 10:29:52;;;;;;;0.10;0.00;;;;;;;16.88;100.00;98621.25;5004813;28;20271;-85
2023/08/03 10:32:21;;;;;;;0.00;0.00;;;;;;;16.88;100.00;98640.56;5000592;28;20796;-85
2023/08/03 10:34:47;;;;;;;0.10;0.10;;;;;;;17.01;100.00;98638.16;5025867;28;20200;-87
2023/08/03 10:37:13;;;;;;;0.00;0.00;;;;;;;17.15;100.00;98640.88;5016011;28;20186;-87
2023/08/03 10:39:48;;;;;;;0.00;0.00;;;;;;;17.20;100.00;98641.25;5033577;28;20230;-87
2023/08/03 10:42:23;;;;;;;0.10;0.10;;;;;;;17.11;100.00;98635.38;5033193;28;20190;-87
2023/08/03 10:44:49;;;;;;;0.00;0.00;;;;;;;17.11;100.00;98651.94;5033620;28;20199;-86
2023/08/03 10:47:29;;;;;;;0.20;0.20;;;;;;;17.08;100.00;98638.94;5015792;28;20745;-87
2023/08/03 10:49:57;;;;;;;0.53;0.20;;;;;;;16.99;100.00;98640.53;5015824;28;20183;-86
2023/08/03 10:52:31;;;;;;;0.10;0.10;;;;;;;17.04;100.00;98651.94;5033180;28;20246;-86
2023/08/03 10:54:58;;;;;;;0.00;0.00;;;;;;;16.92;100.00;98650.41;5025183;28;20205;-87
2023/08/03 10:57:32;;;;;;;0.10;0.10;;;;;;;17.06;100.00;98660.59;5015590;28;20658;-87
2023/08/03 11:00:00;;;;;;;0.30;0.20;;;;;;;16.94;100.00;98655.53;5002225;28;20183;-87
2023/08/03 11:02:30;;;;;;;0.07;0.07;;;;;;;16.92;100.00;98664.22;5004461;28;20647;-87
2023/08/03 11:05:01;;;;;;;3.40;0.40;;;;;;;16.84;100.00;98675.66;5010694;28;20204;-87
2023/08/03 11:07:35;;;;;;;0.10;0.10;;;;;;;16.73;100.00;98669.34;5013109;28;20753;-88
2023/08/03 11:10:02;;;;;;;0.00;0.00;;;;;;;16.86;100.00;98674.06;5007353;28;20222;-87
2023/08/03 11:12:28;;;;;;;1.17;0.50;;;;;;;16.98;100.00;98674.84;5005722;28;20206;-86
2023/08/03 11:14:55;;;;;;;1.00;0.27;;;;;;;17.15;100.00;98687.78;5008319;28;20215;-86
2023/08/03 11:17:26;;;;;;;0.00;0.00;;;;;;;17.23;100.00;98678.31;5024575;28;20580;-87
2023/08/03 11:19:53;;;;;;;0.10;0.10;;;;;;;17.23;100.00;98681.88;5021174;28;20212;-85
2023/08/03 11:22:21;;;;;;;0.00;0.00;;;;;;;17.24;100.00;98671.63;5003346;28;20183;-87
2023/08/03 11:24:47;;;;;;;0.00;0.00;;;;;;;17.34;100.00;98681.03;5015202;28;20238;-87
2023/08/03 11:27:13;;;;;;;0.03;0.03;;;;;;;17.50;100.00;98686.88;5007384;28;20314;-87